Morgenster — PHMY — position and weather

sailwx.info

Track history (hours):
 
Tides and Currents Weather Stations Pressure Air Temp Water Temp Dewpoint Dewpoint Depression Visibility Wind Speed Wind Dir Waves Ship Positions

Morgenster

Last reported at 2015-Jul-02 19:32 UTC. Time now 2015-Jul-03 07:56 UTC.
Position N 54°39' W 005°52'.

Length 38 m; draft 2.4 m.

Type: Sailing vessel. MMSI: 245136000.

Date/timePositionNaut miles runAvg speedWind from/ knotsBaromVisibWave heightAir tempDewpointWater temp
2015-Jul-02 19:32N 54°39' W 005°52'  
2015-Jun-29 13:13N 54°38' W 005°53'4 5.1
2015-Jun-29 12:29N 54°41' W 005°48'3 3.3
2015-Jun-29 11:33N 54°41' W 005°43'1 1.3
2015-Jun-29 10:33N 54°42' W 005°41'0 0.2
2015-Jun-29 09:33N 54°42' W 005°41'2 2.0
2015-Jun-29 08:33N 54°40' W 005°40'0 0.0
2015-Jun-28 20:28N 54°40' W 005°40'3 3.1
2015-Jun-28 19:33N 54°42' W 005°43'3 2.7
2015-Jun-28 18:33N 54°40' W 005°40'0 0.0
2015-Jun-28 09:24N 54°40' W 005°40'0 0.0
2015-Jun-27 20:24N 54°40' W 005°40'1 1.3
2015-Jun-27 19:32N 54°41' W 005°42'0 0.3
2015-Jun-27 18:32N 54°41' W 005°42'1 0.6
2015-Jun-27 16:20N 54°40' W 005°40'0 0.0
2015-Jun-27 14:08N 54°40' W 005°40'0 0.0
2015-Jun-27 13:26N 54°40' W 005°40'0 0.0
2015-Jun-27 11:32N 54°40' W 005°40'0 0.0
2015-Jun-27 10:32N 54°40' W 005°40'0 0.0
2015-Jun-27 09:26N 54°40' W 005°40'0 0.0
2015-Jun-27 08:29N 54°40' W 005°40'0 0.0
2015-Jun-27 07:23N 54°40' W 005°40'0 0.0
2015-Jun-27 06:29N 54°40' W 005°40'0 0.0
2015-Jun-27 05:29N 54°40' W 005°40'0 0.0
2015-Jun-27 04:11N 54°40' W 005°40'0 0.0
2015-Jun-27 02:32N 54°40' W 005°40'0 0.0
2015-Jun-27 01:32N 54°40' W 005°40'0 0.0
2015-Jun-27 00:29N 54°40' W 005°40'0 0.0
2015-Jun-26 23:26N 54°40' W 005°40'0 0.0
2015-Jun-26 22:29N 54°40' W 005°40'0 0.0
2015-Jun-26 21:17N 54°40' W 005°40'0 0.0
2015-Jun-26 20:23N 54°40' W 005°40'0 0.0
2015-Jun-26 18:29N 54°40' W 005°40'0 0.0
2015-Jun-26 09:30N 54°40' W 005°40'1 1.2
2015-Jun-26 08:32N 54°40' W 005°39'0 0.0
2015-Jun-26 07:32N 54°40' W 005°39'0 0.0
2015-Jun-26 06:32N 54°40' W 005°39'0 0.0
2015-Jun-26 05:26N 54°40' W 005°39'0 0.0
2015-Jun-26 04:23N 54°40' W 005°39'0 0.0
2015-Jun-26 03:29N 54°40' W 005°39'0 0.0
2015-Jun-26 02:20N 54°40' W 005°39'0 0.0
2015-Jun-26 01:23N 54°40' W 005°39'0 0.0
2015-Jun-26 00:11N 54°40' W 005°39'0 0.0
2015-Jun-25 23:29N 54°40' W 005°39'0 0.0
2015-Jun-25 22:26N 54°40' W 005°39'0 0.0
2015-Jun-25 21:23N 54°40' W 005°39'0 0.0
2015-Jun-25 20:26N 54°40' W 005°39'0 0.0
2015-Jun-25 19:29N 54°40' W 005°39'0 0.0
2015-Jun-25 18:29N 54°40' W 005°39'0 0.0
2015-Jun-25 17:32N 54°40' W 005°39'3 1.6
2015-Jun-25 15:33N 54°41' W 005°44'5 5.3
2015-Jun-25 14:33N 54°44' W 005°36'6 5.8
2015-Jun-25 13:33N 54°48' W 005°30'5 4.3
2015-Jun-25 12:29N 54°52' W 005°26'13 0.6
2015-Jun-24 15:33N 55°01' W 005°10'4 3.7
2015-Jun-24 14:32N 54°57' W 005°13'3 3.5
2015-Jun-24 13:33N 54°54' W 005°12'1 1.1
2015-Jun-24 12:31N 54°53' W 005°12'1 1.4
2015-Jun-24 11:32N 54°51' W 005°12'2 1.6
2015-Jun-24 10:29N 54°50' W 005°10'3 2.8
2015-Jun-24 09:31N 54°48' W 005°08'2 2.6
2015-Jun-24 08:34N 54°45' W 005°06'4 3.6
2015-Jun-24 07:32N 54°42' W 005°02'5 5.4
2015-Jun-24 06:32N 54°38' W 004°57'30 2.5
2015-Jun-23 18:41N 54°19' W 004°18'  
Track history (hours):
 
Tides and Currents Weather Stations Pressure Air Temp Water Temp Dewpoint Dewpoint Depression Visibility Wind Speed Wind Dir Waves Ship Positions

Morgenster

Last reported at 2015-Jul-02 19:32 UTC. Time now 2015-Jul-03 07:56 UTC.
Position N 54°39' W 005°52'.

Length 38 m; draft 2.4 m.

Type: Sailing vessel. MMSI: 245136000.

Date/timePositionNaut miles runAvg speedWind from/ knotsBaromVisibWave heightAir tempDewpointWater temp
2015-Jul-02 19:32N 54°39' W 005°52'  
2015-Jun-29 13:13N 54°38' W 005°53'4 5.1
2015-Jun-29 12:29N 54°41' W 005°48'3 3.3
2015-Jun-29 11:33N 54°41' W 005°43'1 1.3
2015-Jun-29 10:33N 54°42' W 005°41'0 0.2
2015-Jun-29 09:33N 54°42' W 005°41'2 2.0
2015-Jun-29 08:33N 54°40' W 005°40'0 0.0
2015-Jun-28 20:28N 54°40' W 005°40'3 3.1
2015-Jun-28 19:33N 54°42' W 005°43'3 2.7
2015-Jun-28 18:33N 54°40' W 005°40'0 0.0
2015-Jun-28 09:24N 54°40' W 005°40'0 0.0
2015-Jun-27 20:24N 54°40' W 005°40'1 1.3
2015-Jun-27 19:32N 54°41' W 005°42'0 0.3
2015-Jun-27 18:32N 54°41' W 005°42'1 0.6
2015-Jun-27 16:20N 54°40' W 005°40'0 0.0
2015-Jun-27 14:08N 54°40' W 005°40'0 0.0
2015-Jun-27 13:26N 54°40' W 005°40'0 0.0
2015-Jun-27 11:32N 54°40' W 005°40'0 0.0
2015-Jun-27 10:32N 54°40' W 005°40'0 0.0
2015-Jun-27 09:26N 54°40' W 005°40'0 0.0
2015-Jun-27 08:29N 54°40' W 005°40'0 0.0
2015-Jun-27 07:23N 54°40' W 005°40'0 0.0
2015-Jun-27 06:29N 54°40' W 005°40'0 0.0
2015-Jun-27 05:29N 54°40' W 005°40'0 0.0
2015-Jun-27 04:11N 54°40' W 005°40'0 0.0
2015-Jun-27 02:32N 54°40' W 005°40'0 0.0
2015-Jun-27 01:32N 54°40' W 005°40'0 0.0
2015-Jun-27 00:29N 54°40' W 005°40'0 0.0
2015-Jun-26 23:26N 54°40' W 005°40'0 0.0
2015-Jun-26 22:29N 54°40' W 005°40'0 0.0
2015-Jun-26 21:17N 54°40' W 005°40'0 0.0
2015-Jun-26 20:23N 54°40' W 005°40'0 0.0
2015-Jun-26 18:29N 54°40' W 005°40'0 0.0
2015-Jun-26 09:30N 54°40' W 005°40'1 1.2
2015-Jun-26 08:32N 54°40' W 005°39'0 0.0
2015-Jun-26 07:32N 54°40' W 005°39'0 0.0
2015-Jun-26 06:32N 54°40' W 005°39'0 0.0
2015-Jun-26 05:26N 54°40' W 005°39'0 0.0
2015-Jun-26 04:23N 54°40' W 005°39'0 0.0
2015-Jun-26 03:29N 54°40' W 005°39'0 0.0
2015-Jun-26 02:20N 54°40' W 005°39'0 0.0
2015-Jun-26 01:23N 54°40' W 005°39'0 0.0
2015-Jun-26 00:11N 54°40' W 005°39'0 0.0
2015-Jun-25 23:29N 54°40' W 005°39'0 0.0
2015-Jun-25 22:26N 54°40' W 005°39'0 0.0
2015-Jun-25 21:23N 54°40' W 005°39'0 0.0
2015-Jun-25 20:26N 54°40' W 005°39'0 0.0
2015-Jun-25 19:29N 54°40' W 005°39'0 0.0
2015-Jun-25 18:29N 54°40' W 005°39'0 0.0
2015-Jun-25 17:32N 54°40' W 005°39'3 1.6
2015-Jun-25 15:33N 54°41' W 005°44'5 5.3
2015-Jun-25 14:33N 54°44' W 005°36'6 5.8
2015-Jun-25 13:33N 54°48' W 005°30'5 4.3
2015-Jun-25 12:29N 54°52' W 005°26'13 0.6
2015-Jun-24 15:33N 55°01' W 005°10'4 3.7
2015-Jun-24 14:32N 54°57' W 005°13'3 3.5
2015-Jun-24 13:33N 54°54' W 005°12'1 1.1
2015-Jun-24 12:31N 54°53' W 005°12'1 1.4
2015-Jun-24 11:32N 54°51' W 005°12'2 1.6
2015-Jun-24 10:29N 54°50' W 005°10'3 2.8
2015-Jun-24 09:31N 54°48' W 005°08'2 2.6
2015-Jun-24 08:34N 54°45' W 005°06'4 3.6
2015-Jun-24 07:32N 54°42' W 005°02'5 5.4
2015-Jun-24 06:32N 54°38' W 004°57'30 2.5
2015-Jun-23 18:41N 54°19' W 004°18'  

Dump ship's entire track history